Olimpia — UBLF5 — position and weather

sailwx.info

Track history (hours):
 
Tides and Currents Weather Stations Pressure Air Temp Water Temp Dewpoint Dewpoint Depression Visibility Wind Speed Wind Dir Waves Ship Positions

Olimpia

Last reported at 2018-May-20 17:00 UTC. Time now 2018-May-20 17:20 UTC.
Position N 45°28' E 036°38'.

Length 127 m; draft 4.4 m.

Type: Cargo ship. MMSI: 273332220.

Date/timePositionNaut miles runAvg speedWind from/ knotsBaromVisibWave heightAir tempDewpointWater temp
2018-May-20 17:00N 45°28' E 036°38'0 0.0
2018-May-20 16:30N 45°28' E 036°38'0 0.0
2018-May-20 15:51N 45°28' E 036°38'0 0.0
2018-May-20 15:30N 45°28' E 036°38'0 0.0
2018-May-20 15:00N 45°28' E 036°38'0 0.0
2018-May-20 14:30N 45°28' E 036°38'0 0.0
2018-May-20 13:09N 45°28' E 036°38'0 0.0
2018-May-20 13:00N 45°28' E 036°38'0 0.0
2018-May-20 11:57N 45°28' E 036°38'0 0.0
2018-May-20 11:06N 45°28' E 036°38'0 0.0
2018-May-20 11:00N 45°28' E 036°38'2 4.7
2018-May-20 10:30N 45°29' E 036°40'  
2018-May-11 19:20N 45°31' E 036°46'3 9.0
2018-May-11 19:00N 45°29' E 036°43'4 8.9
2018-May-11 18:30N 45°24' E 036°41'4 8.2
2018-May-11 18:00N 45°21' E 036°38'4 8.4
2018-May-11 17:30N 45°19' E 036°33'4 7.7
2018-May-11 17:00N 45°16' E 036°29'4 8.8
2018-May-11 16:30N 45°12' E 036°28'5 8.7
2018-May-11 15:58N 45°08' E 036°31'2 0.2
2018-May-11 03:51N 45°06' E 036°33'  
Track history (hours):
 
Tides and Currents Weather Stations Pressure Air Temp Water Temp Dewpoint Dewpoint Depression Visibility Wind Speed Wind Dir Waves Ship Positions

Olimpia

Last reported at 2018-May-20 17:00 UTC. Time now 2018-May-20 17:20 UTC.
Position N 45°28' E 036°38'.

Length 127 m; draft 4.4 m.

Type: Cargo ship. MMSI: 273332220.

Date/timePositionNaut miles runAvg speedWind from/ knotsBaromVisibWave heightAir tempDewpointWater temp
2018-May-20 17:00N 45°28' E 036°38'0 0.0
2018-May-20 16:30N 45°28' E 036°38'0 0.0
2018-May-20 15:51N 45°28' E 036°38'0 0.0
2018-May-20 15:30N 45°28' E 036°38'0 0.0
2018-May-20 15:00N 45°28' E 036°38'0 0.0
2018-May-20 14:30N 45°28' E 036°38'0 0.0
2018-May-20 13:09N 45°28' E 036°38'0 0.0
2018-May-20 13:00N 45°28' E 036°38'0 0.0
2018-May-20 11:57N 45°28' E 036°38'0 0.0
2018-May-20 11:06N 45°28' E 036°38'0 0.0
2018-May-20 11:00N 45°28' E 036°38'2 4.7
2018-May-20 10:30N 45°29' E 036°40'  
2018-May-11 19:20N 45°31' E 036°46'3 9.0
2018-May-11 19:00N 45°29' E 036°43'4 8.9
2018-May-11 18:30N 45°24' E 036°41'4 8.2
2018-May-11 18:00N 45°21' E 036°38'4 8.4
2018-May-11 17:30N 45°19' E 036°33'4 7.7
2018-May-11 17:00N 45°16' E 036°29'4 8.8
2018-May-11 16:30N 45°12' E 036°28'5 8.7
2018-May-11 15:58N 45°08' E 036°31'2 0.2
2018-May-11 03:51N 45°06' E 036°33'  

Dump ship's entire track history